Terminal Aerodrome Forecast
Issued by NWS

Home | Current Version | Previous Version | Graphics & Text | Print | Product List | Glossary On
Versions: 1 2 3 4 5 6 7 8 9 10 11 12 13 14 15 16
000
FTUS43 KICT 221700
TAFHUT
TAF
KHUT 221731Z 2218/2318 20014KT P6SM VCTS BKN100CB
     FM222000 19014G20KT P6SM SCT100
     FM230100 18012KT P6SM SCT100
     FM231500 19015G21KT P6SM SCT100=

USA.gov is the U.S. government's official web portal to all federal, state and local government web resources and services.